Time;durP1;ratioP1;P1;durP2;ratioP2;P2;SDS_P1;SDS_P2;PMS_P1;PMS_P2;Temp;Humidity;BMP_temperature;BMP_pressure;BME280_temperature;BME280_humidity;BME280_pressure;Samples;Min_cycle;Max_cycle;Signal;HPM_P1;HPM_P2
2021/09/12 00:02:26;;;;;;;12.80;9.60;;;;;;;18.25;77.36;100908.69;5064250;28;20225;-78
2021/09/12 00:04:52;;;;;;;11.00;9.77;;;;;;;18.26;77.50;100913.09;5068529;28;20205;-79
2021/09/12 00:07:19;;;;;;;10.00;9.00;;;;;;;18.27;77.52;100920.22;5062380;28;20228;-78
2021/09/12 00:09:45;;;;;;;9.70;8.70;;;;;;;18.26;77.54;100913.09;5063674;28;20208;-79
2021/09/12 00:12:12;;;;;;;12.43;9.23;;;;;;;18.27;77.60;100914.81;5056067;28;20245;-79
2021/09/12 00:14:39;;;;;;;10.57;9.50;;;;;;;18.27;77.72;100912.13;5056248;28;20207;-78
2021/09/12 00:17:07;;;;;;;10.63;9.50;;;;;;;18.27;77.69;100909.41;5050281;28;20198;-80
2021/09/12 00:19:34;;;;;;;10.37;9.30;;;;;;;18.27;77.63;100914.81;5058792;28;20247;-79
2021/09/12 00:22:00;;;;;;;12.93;10.50;;;;;;;18.27;77.66;100906.72;5056908;28;20297;-80
2021/09/12 00:24:27;;;;;;;12.20;10.47;;;;;;;18.28;77.59;100905.69;5061630;28;20272;-79
2021/09/12 00:26:54;;;;;;;12.23;11.03;;;;;;;18.27;77.59;100904.84;5051943;28;20312;-79
2021/09/12 00:29:21;;;;;;;11.97;10.77;;;;;;;18.28;77.54;100903.00;5057584;28;20263;-79
2021/09/12 00:31:47;;;;;;;15.30;11.33;;;;;;;18.28;77.69;100911.94;5059849;28;20231;-79
2021/09/12 00:34:15;;;;;;;12.47;10.60;;;;;;;18.28;77.59;100906.56;5058311;28;20216;-78
2021/09/12 00:36:42;;;;;;;12.17;10.83;;;;;;;18.29;77.63;100912.81;5052043;28;20202;-82
2021/09/12 00:39:09;;;;;;;12.47;10.90;;;;;;;18.30;77.47;100903.72;5052417;28;20205;-81
2021/09/12 00:41:36;;;;;;;14.03;11.30;;;;;;;18.30;77.49;100901.88;5050751;28;20220;-80
2021/09/12 00:44:03;;;;;;;14.13;10.40;;;;;;;18.31;77.50;100897.34;5051767;28;20205;-80
2021/09/12 00:46:30;;;;;;;12.70;11.37;;;;;;;18.31;77.51;100894.63;5057456;28;20247;-81
2021/09/12 00:48:57;;;;;;;11.83;10.63;;;;;;;18.32;77.36;100904.44;5055558;28;20577;-80
2021/09/12 00:51:25;;;;;;;11.50;9.63;;;;;;;18.33;77.49;100908.84;5056826;28;20666;-79
2021/09/12 00:53:54;;;;;;;11.47;10.37;;;;;;;18.34;77.46;100905.16;5056393;28;20206;-80
2021/09/12 00:56:22;;;;;;;11.97;10.00;;;;;;;18.34;77.41;100905.16;5064537;28;20659;-81
2021/09/12 00:58:51;;;;;;;11.27;10.10;;;;;;;18.35;77.14;100909.56;5066041;28;20212;-80
2021/09/12 01:01:18;;;;;;;13.60;11.07;;;;;;;18.35;77.23;100909.56;5060897;28;20718;-80
2021/09/12 01:03:44;;;;;;;13.23;11.13;;;;;;;18.35;77.21;100906.84;5052899;28;20215;-79
2021/09/12 01:06:11;;;;;;;15.43;10.80;;;;;;;18.35;77.25;100907.72;5061552;28;20229;-80
2021/09/12 01:08:39;;;;;;;12.10;10.87;;;;;;;18.37;77.12;100907.56;5053313;28;20304;-81
2021/09/12 01:11:06;;;;;;;11.80;10.60;;;;;;;18.36;77.38;100911.25;5063643;28;20212;-80
2021/09/12 01:13:37;;;;;;;11.23;10.07;;;;;;;18.36;77.24;100913.94;5063089;28;20676;-80
2021/09/12 01:16:10;;;;;;;12.93;10.97;;;;;;;18.34;77.31;100914.09;5056716;28;20201;-80
2021/09/12 01:18:36;;;;;;;14.40;11.53;;;;;;;18.35;77.36;100904.16;5053760;28;20198;-79
2021/09/12 01:21:03;;;;;;;13.27;11.80;;;;;;;18.34;77.30;100915.94;5058126;28;20662;-79
2021/09/12 01:23:30;;;;;;;15.43;11.83;;;;;;;18.34;77.23;100913.25;5063722;28;20694;-81
2021/09/12 01:25:58;;;;;;;15.20;11.83;;;;;;;18.34;77.42;100908.69;5058385;28;20198;-82
2021/09/12 01:28:24;;;;;;;17.50;12.23;;;;;;;18.34;77.49;100899.75;5058988;28;20213;-82
2021/09/12 01:30:51;;;;;;;12.83;11.53;;;;;;;18.34;77.71;100900.59;5058022;28;20201;-82
2021/09/12 01:33:18;;;;;;;14.53;12.37;;;;;;;18.34;77.57;100897.06;5058918;28;20223;-80
2021/09/12 01:35:45;;;;;;;15.73;11.60;;;;;;;18.33;77.62;100892.66;5056483;28;20207;-80
2021/09/12 01:38:11;;;;;;;13.80;12.40;;;;;;;18.34;77.74;100899.75;5065160;28;20299;-83
2021/09/12 01:40:38;;;;;;;14.03;12.50;;;;;;;18.33;77.72;100888.13;5056982;28;20210;-80
2021/09/12 01:43:06;;;;;;;14.63;13.13;;;;;;;18.32;77.75;100885.56;5060060;28;20571;-82
2021/09/12 01:45:33;;;;;;;14.83;12.70;;;;;;;18.32;77.98;100888.25;5056860;28;20213;-82
2021/09/12 01:48:00;;;;;;;13.97;12.57;;;;;;;18.31;78.02;100878.47;5064502;28;20296;-81
2021/09/12 01:50:27;;;;;;;14.50;13.00;;;;;;;18.31;77.90;100878.47;5057176;28;20207;-81
2021/09/12 01:52:54;;;;;;;14.10;12.33;;;;;;;18.31;77.98;100871.22;5056968;28;20231;-81
2021/09/12 01:55:21;;;;;;;14.40;12.90;;;;;;;18.30;78.18;100874.91;5061506;28;20215;-82
2021/09/12 01:57:48;;;;;;;14.70;12.83;;;;;;;18.29;78.12;100875.91;5056319;28;20202;-80
2021/09/12 02:00:17;;;;;;;14.30;12.00;;;;;;;18.29;78.08;100870.50;5053709;28;20212;-83
2021/09/12 02:02:43;;;;;;;14.60;12.43;;;;;;;18.29;78.14;100875.06;5056894;28;20233;-84
2021/09/12 02:05:11;;;;;;;14.60;12.53;;;;;;;18.28;78.23;100876.03;5053670;28;20199;-84
2021/09/12 02:07:37;;;;;;;12.40;11.10;;;;;;;18.27;78.38;100871.69;5059759;28;20228;-84
2021/09/12 02:10:04;;;;;;;15.03;12.97;;;;;;;18.27;78.37;100868.97;5054600;28;20209;-84
2021/09/12 02:12:30;;;;;;;12.83;11.43;;;;;;;18.26;78.35;100867.28;5055279;28;20217;-84
2021/09/12 02:14:58;;;;;;;12.97;11.77;;;;;;;18.25;78.42;100879.03;5054374;28;20198;-84
2021/09/12 02:17:26;;;;;;;12.60;11.30;;;;;;;18.25;78.63;100871.81;5049789;28;20240;-84
2021/09/12 02:19:52;;;;;;;12.33;11.03;;;;;;;18.23;78.71;100864.84;5054599;28;20209;-84
2021/09/12 02:22:19;;;;;;;13.53;11.37;;;;;;;18.23;78.63;100871.09;5060150;28;20222;-84
2021/09/12 02:24:46;;;;;;;12.57;10.70;;;;;;;18.24;78.75;100885.44;5063195;28;20265;-82
2021/09/12 02:27:12;;;;;;;14.20;10.87;;;;;;;18.24;78.80;100880.03;5067344;28;20324;-84
2021/09/12 02:29:39;;;;;;;12.17;10.97;;;;;;;18.22;78.84;100880.19;5059431;28;20200;-84
2021/09/12 02:32:06;;;;;;;12.20;10.90;;;;;;;18.22;78.78;100885.56;5055258;28;20227;-85
2021/09/12 02:34:34;;;;;;;12.50;11.30;;;;;;;18.23;78.85;100889.97;5054668;28;20212;-84
2021/09/12 02:37:01;;;;;;;12.67;11.27;;;;;;;18.22;78.96;100893.66;5058469;28;20280;-85
2021/09/12 02:39:27;;;;;;;12.20;11.00;;;;;;;18.22;79.12;100895.50;5061309;28;20213;-83
2021/09/12 02:41:57;;;;;;;13.60;12.13;;;;;;;18.22;79.33;100893.66;5059617;28;20239;-83
2021/09/12 02:44:23;;;;;;;13.60;12.20;;;;;;;18.22;79.30;100893.66;5055571;28;20306;-83
2021/09/12 02:46:50;;;;;;;15.47;13.33;;;;;;;18.24;79.48;100893.53;5055694;28;20233;-84
2021/09/12 02:49:16;;;;;;;17.87;14.17;;;;;;;18.23;79.71;100892.66;5056418;28;20306;-83
2021/09/12 02:51:44;;;;;;;14.93;13.33;;;;;;;18.24;80.01;100896.22;5055885;28;20227;-84
2021/09/12 02:54:11;;;;;;;17.67;14.50;;;;;;;18.22;80.11;100892.81;5056297;28;20564;-84
2021/09/12 02:56:37;;;;;;;16.67;14.97;;;;;;;18.23;80.23;100898.06;5056777;28;20290;-85
2021/09/12 02:59:04;;;;;;;17.23;14.73;;;;;;;18.22;80.47;100890.09;5052250;28;20206;-84
2021/09/12 03:01:30;;;;;;;16.10;14.23;;;;;;;18.22;80.58;100898.19;5055743;28;20597;-85
2021/09/12 03:03:57;;;;;;;15.13;13.63;;;;;;;18.21;80.77;100888.41;5056916;28;20217;-83
2021/09/12 03:06:23;;;;;;;16.07;14.37;;;;;;;18.21;80.93;100896.50;5057933;28;20314;-85
2021/09/12 03:08:51;;;;;;;16.63;14.50;;;;;;;18.21;80.77;100885.72;5053127;28;20220;-85
2021/09/12 03:11:18;;;;;;;15.43;13.93;;;;;;;18.19;80.85;100888.53;5047208;28;20305;-85
2021/09/12 03:13:45;;;;;;;17.77;15.27;;;;;;;18.18;80.92;100889.53;5054223;28;20217;-83
2021/09/12 03:16:11;;;;;;;14.67;13.17;;;;;;;18.16;80.88;100888.81;5048487;28;20208;-85
2021/09/12 03:18:38;;;;;;;14.47;13.07;;;;;;;18.16;80.74;100890.66;5052025;28;20208;-84
2021/09/12 03:21:04;;;;;;;16.00;14.40;;;;;;;18.13;80.93;100891.78;5075580;28;20210;-84
2021/09/12 03:23:34;;;;;;;15.90;14.30;;;;;;;18.13;80.70;100888.22;5071077;28;20245;-84
2021/09/12 03:26:02;;;;;;;16.63;13.80;;;;;;;18.13;80.95;100885.53;5063425;28;20208;-83
2021/09/12 03:28:29;;;;;;;15.50;13.87;;;;;;;18.12;80.95;100886.53;5072114;28;20228;-84
2021/09/12 03:30:56;;;;;;;16.80;15.10;;;;;;;18.11;81.03;100887.53;5053772;28;20202;-83
2021/09/12 03:33:22;;;;;;;16.90;14.30;;;;;;;18.11;80.97;100887.53;5055761;28;20228;-82
2021/09/12 03:35:49;;;;;;;17.10;14.67;;;;;;;18.10;81.06;100881.28;5054491;28;20654;-83
2021/09/12 03:38:16;;;;;;;15.17;13.53;;;;;;;18.11;80.87;100882.13;5056161;28;20588;-83
2021/09/12 03:40:42;;;;;;;20.47;13.97;;;;;;;18.08;81.04;100880.59;5055391;28;20202;-83
2021/09/12 03:43:10;;;;;;;18.77;14.17;;;;;;;18.08;80.90;100872.50;5065983;28;20222;-84
2021/09/12 03:45:39;;;;;;;15.10;13.23;;;;;;;18.09;81.00;100882.28;5056690;28;20570;-84
2021/09/12 03:48:06;;;;;;;18.97;14.57;;;;;;;18.08;80.92;100877.03;5054007;28;20689;-84
2021/09/12 03:50:33;;;;;;;15.33;13.73;;;;;;;18.07;80.95;100873.50;5055448;28;20218;-83
2021/09/12 03:53:00;;;;;;;16.50;14.60;;;;;;;18.06;81.12;100879.03;5055211;28;20230;-83
2021/09/12 03:55:26;;;;;;;17.60;14.90;;;;;;;18.05;81.03;100883.56;5064132;28;20208;-83
2021/09/12 03:57:53;;;;;;;15.30;13.77;;;;;;;18.02;81.00;100879.28;5056030;28;20207;-84
2021/09/12 04:00:21;;;;;;;15.93;14.07;;;;;;;18.02;80.98;100878.44;5061855;28;20203;-83
2021/09/12 04:02:47;;;;;;;15.00;13.37;;;;;;;18.02;81.10;100878.44;5051118;28;20236;-83
2021/09/12 04:05:14;;;;;;;16.23;14.53;;;;;;;18.00;81.11;100881.28;5055868;28;20206;-84
2021/09/12 04:07:41;;;;;;;15.43;13.83;;;;;;;17.98;81.16;100877.88;5077486;28;20222;-83
2021/09/12 04:10:08;;;;;;;15.73;14.20;;;;;;;17.97;81.22;100884.25;5074142;28;20208;-85
2021/09/12 04:12:35;;;;;;;15.43;13.83;;;;;;;17.97;81.44;100880.69;5063218;28;20225;-85
2021/09/12 04:15:02;;;;;;;16.27;14.57;;;;;;;17.95;81.38;100883.53;5066456;28;20296;-83
2021/09/12 04:17:29;;;;;;;15.60;13.67;;;;;;;17.94;81.61;100876.44;5061991;28;20670;-83
2021/09/12 04:19:56;;;;;;;15.57;13.97;;;;;;;17.94;81.80;100881.81;5065337;28;20285;-83
2021/09/12 04:22:22;;;;;;;17.20;14.80;;;;;;;17.94;82.04;100878.28;5064304;28;20229;-83
2021/09/12 04:24:49;;;;;;;18.33;14.77;;;;;;;17.94;81.69;100884.50;5071353;28;20204;-84
2021/09/12 04:27:16;;;;;;;16.93;14.03;;;;;;;17.94;82.13;100889.06;5066901;28;20794;-83
2021/09/12 04:29:43;;;;;;;16.73;14.87;;;;;;;17.95;81.99;100882.69;5073217;28;20205;-83
2021/09/12 04:32:09;;;;;;;15.37;13.33;;;;;;;17.95;82.12;100883.53;5054945;28;20307;-84
2021/09/12 04:34:37;;;;;;;16.37;13.30;;;;;;;17.95;82.20;100886.22;5047342;28;20212;-84
2021/09/12 04:37:04;;;;;;;16.13;14.07;;;;;;;17.93;82.25;100880.13;5052903;28;20211;-84
2021/09/12 04:39:31;;;;;;;15.63;13.37;;;;;;;17.94;82.42;100883.66;5053884;28;20211;-83
2021/09/12 04:41:57;;;;;;;14.17;12.77;;;;;;;17.94;82.26;100884.50;5063582;28;20221;-84
2021/09/12 04:44:24;;;;;;;14.67;13.07;;;;;;;17.94;82.78;100887.22;5055200;28;20219;-84
2021/09/12 04:46:51;;;;;;;15.07;13.47;;;;;;;17.93;82.38;100885.50;5053149;28;20202;-84
2021/09/12 04:49:17;;;;;;;14.37;12.63;;;;;;;17.94;82.43;100891.75;5052452;28;20236;-82
2021/09/12 04:51:48;;;;;;;13.83;12.43;;;;;;;17.95;82.39;100888.91;5065058;28;20231;-82
2021/09/12 04:54:14;;;;;;;14.33;12.17;;;;;;;17.95;82.75;100891.59;5069324;28;20664;-82
2021/09/12 04:56:41;;;;;;;15.27;13.17;;;;;;;17.93;82.58;100888.19;5068442;28;20206;-82
2021/09/12 04:59:07;;;;;;;12.97;11.73;;;;;;;17.94;82.51;100887.22;5072767;28;20223;-82
2021/09/12 05:01:40;;;;;;;14.20;12.13;;;;;;;17.94;82.61;100897.13;5062417;28;20218;-82
2021/09/12 05:04:06;;;;;;;16.23;13.50;;;;;;;17.94;82.75;100898.00;5063711;28;20210;-81
2021/09/12 05:06:33;;;;;;;17.57;13.50;;;;;;;17.95;82.65;100898.84;5065900;28;20207;-80
2021/09/12 05:09:01;;;;;;;16.37;12.83;;;;;;;17.95;82.77;100897.00;5055198;28;20299;-81
2021/09/12 05:11:27;;;;;;;13.63;12.03;;;;;;;17.95;82.85;100898.84;5075160;28;20290;-81
2021/09/12 05:13:54;;;;;;;14.00;12.50;;;;;;;17.93;82.86;100904.38;5062464;28;20213;-81
2021/09/12 05:16:20;;;;;;;13.87;12.40;;;;;;;17.93;82.96;100904.38;5065862;28;20306;-81
2021/09/12 05:18:50;;;;;;;17.30;13.60;;;;;;;17.94;83.10;100908.78;5066719;28;20194;-81
2021/09/12 05:21:17;;;;;;;13.53;12.00;;;;;;;17.94;83.03;100918.69;5069772;28;20537;-82
2021/09/12 05:23:43;;;;;;;14.47;12.50;;;;;;;17.94;83.31;100913.31;5056428;28;20216;-82
2021/09/12 05:26:11;;;;;;;13.57;12.17;;;;;;;17.95;82.99;100906.94;5062219;28;20568;-83
2021/09/12 05:28:38;;;;;;;14.47;12.63;;;;;;;17.93;83.19;100912.44;5062231;28;20226;-84
2021/09/12 05:31:04;;;;;;;15.03;12.33;;;;;;;17.94;83.38;100908.78;5067464;28;20204;-83
2021/09/12 05:33:31;;;;;;;13.60;10.97;;;;;;;17.95;83.34;100898.84;5061665;28;20229;-83
2021/09/12 05:35:58;;;;;;;12.90;11.50;;;;;;;17.95;83.42;100897.00;5066309;28;20209;-83
2021/09/12 05:38:24;;;;;;;13.07;10.77;;;;;;;17.96;83.44;100906.78;5064305;28;20201;-83
2021/09/12 05:40:51;;;;;;;11.77;10.03;;;;;;;17.96;83.58;100896.00;5059688;28;20695;-83
2021/09/12 05:43:19;;;;;;;12.90;10.40;;;;;;;17.97;83.55;100903.09;5068984;28;20233;-82
2021/09/12 05:45:47;;;;;;;11.73;10.53;;;;;;;17.98;83.74;100909.34;5060204;28;20594;-81
2021/09/12 05:48:14;;;;;;;12.13;10.53;;;;;;;17.99;83.60;100906.53;5057569;28;20271;-81
2021/09/12 05:50:41;;;;;;;13.77;10.80;;;;;;;18.01;83.58;100904.53;5061023;28;20217;-83
2021/09/12 05:53:09;;;;;;;12.77;10.57;;;;;;;18.02;83.60;100911.63;5057484;28;20224;-82
2021/09/12 05:55:36;;;;;;;13.10;10.50;;;;;;;18.05;83.93;100905.13;5074213;28;20217;-84
2021/09/12 05:58:03;;;;;;;11.60;10.40;;;;;;;18.07;83.79;100907.69;5061099;28;20273;-82
2021/09/12 06:00:31;;;;;;;13.50;11.03;;;;;;;18.08;83.54;100918.31;5067262;28;20219;-82
2021/09/12 06:02:57;;;;;;;14.37;11.73;;;;;;;18.09;83.79;100917.34;5073721;28;20241;-82
2021/09/12 06:05:26;;;;;;;14.03;11.57;;;;;;;18.11;83.63;100914.47;5060538;28;20239;-82
2021/09/12 06:07:53;;;;;;;12.20;10.90;;;;;;;18.13;83.61;100918.75;5059863;28;20240;-82
2021/09/12 06:10:22;;;;;;;13.47;11.00;;;;;;;18.16;83.76;100918.47;5059099;28;20216;-82
2021/09/12 06:12:49;;;;;;;13.73;11.27;;;;;;;18.18;83.54;100918.34;5063312;28;20239;-83
2021/09/12 06:15:15;;;;;;;14.83;11.87;;;;;;;18.21;83.62;100924.31;5061996;28;20214;-82
2021/09/12 06:17:43;;;;;;;14.00;12.37;;;;;;;18.25;83.64;100936.53;5053930;28;20221;-83
2021/09/12 06:20:11;;;;;;;16.83;12.37;;;;;;;18.28;83.54;100927.28;5047881;28;20207;-83
2021/09/12 06:22:42;;;;;;;14.97;12.73;;;;;;;18.31;83.66;100938.63;5047481;28;20230;-83
2021/09/12 06:25:10;;;;;;;15.67;12.90;;;;;;;18.32;83.68;100931.41;5044541;28;20219;-81
2021/09/12 06:27:36;;;;;;;16.17;13.63;;;;;;;18.34;83.39;100926.72;5051267;28;20212;-81
2021/09/12 06:30:03;;;;;;;18.40;14.10;;;;;;;18.36;83.43;100931.00;5057436;28;20209;-81
2021/09/12 06:32:30;;;;;;;20.57;15.00;;;;;;;18.38;83.41;100925.47;5071416;28;20784;-80
2021/09/12 06:34:57;;;;;;;20.13;15.63;;;;;;;18.39;83.38;100933.41;5058181;28;20210;-81
2021/09/12 06:37:24;;;;;;;21.07;15.63;;;;;;;18.42;83.25;100939.50;5057360;28;20215;-81
2021/09/12 06:39:51;;;;;;;18.97;15.50;;;;;;;18.43;83.28;100936.69;5064239;28;20206;-81
2021/09/12 06:42:17;;;;;;;19.43;15.97;;;;;;;18.45;83.19;100939.25;5062446;28;20241;-81
2021/09/12 06:44:44;;;;;;;21.23;15.03;;;;;;;18.45;83.09;100936.53;5072484;28;20208;-81
2021/09/12 06:47:11;;;;;;;17.57;14.57;;;;;;;18.46;83.15;100925.59;5060495;28;20215;-81
2021/09/12 06:49:37;;;;;;;19.40;15.00;;;;;;;18.49;83.08;100932.53;5076701;28;20228;-80
2021/09/12 06:52:06;;;;;;;23.00;16.40;;;;;;;18.51;82.85;100930.56;5076450;28;20223;-80
2021/09/12 06:54:32;;;;;;;22.10;15.23;;;;;;;18.53;82.84;100939.38;5076588;28;20207;-81
2021/09/12 06:56:59;;;;;;;23.20;17.33;;;;;;;18.55;82.79;100930.16;5076735;28;20213;-80
2021/09/12 06:59:25;;;;;;;20.13;16.13;;;;;;;18.59;82.63;100939.69;5076188;28;20204;-81
2021/09/12 07:01:52;;;;;;;21.60;16.33;;;;;;;18.61;82.99;100931.47;5076020;28;20227;-81
2021/09/12 07:04:21;;;;;;;19.07;15.30;;;;;;;18.63;82.56;100935.69;5076479;28;20286;-80
2021/09/12 07:06:47;;;;;;;21.03;15.47;;;;;;;18.67;82.42;100933.56;5061812;28;20659;-81
2021/09/12 07:09:15;;;;;;;23.10;15.90;;;;;;;18.68;82.38;100930.75;5058205;28;20224;-81
2021/09/12 07:11:42;;;;;;;19.47;14.97;;;;;;;18.73;82.24;100933.03;5047382;28;20227;-82
2021/09/12 07:14:08;;;;;;;20.07;15.77;;;;;;;18.76;82.20;100931.88;5057137;28;20202;-81
2021/09/12 07:16:35;;;;;;;21.53;15.53;;;;;;;18.78;82.10;100930.75;5057252;28;20210;-81
2021/09/12 07:19:07;;;;;;;21.47;15.80;;;;;;;18.82;81.83;100939.38;5054929;28;20214;-81
2021/09/12 07:21:33;;;;;;;20.33;15.43;;;;;;;18.85;82.04;100925.63;5058272;28;20229;-81
2021/09/12 07:24:00;;;;;;;23.60;17.00;;;;;;;18.87;81.63;100929.03;5048350;28;20211;-81
2021/09/12 07:26:28;;;;;;;18.97;15.63;;;;;;;18.90;81.59;100931.44;5058467;28;20219;-81
2021/09/12 07:28:54;;;;;;;17.40;15.17;;;;;;;18.93;81.65;100929.31;5070195;28;20710;-82
2021/09/12 07:31:21;;;;;;;19.27;14.63;;;;;;;18.98;81.50;100928.88;5065222;28;20214;-81
2021/09/12 07:33:47;;;;;;;20.87;14.57;;;;;;;19.01;81.33;100942.06;5053301;28;20676;-81
2021/09/12 07:36:14;;;;;;;18.70;14.40;;;;;;;19.03;81.18;100940.94;5055231;28;20209;-81
2021/09/12 07:38:40;;;;;;;13.87;10.77;;;;;;;19.05;80.95;100946.19;5071126;28;20209;-81
2021/09/12 07:41:07;;;;;;;10.33;9.07;;;;;;;19.02;80.53;100946.47;5067364;28;20209;-80
2021/09/12 07:43:35;;;;;;;9.53;8.53;;;;;;;19.00;80.52;100949.31;5057224;28;20221;-80
2021/09/12 07:46:01;;;;;;;10.13;8.73;;;;;;;18.97;80.67;100955.03;5056521;28;20302;-81
2021/09/12 07:48:28;;;;;;;10.17;9.00;;;;;;;18.96;80.94;100965.97;5060295;28;20230;-82
2021/09/12 07:50:55;;;;;;;11.43;8.30;;;;;;;18.96;81.15;100960.56;5055254;28;20219;-82
2021/09/12 07:53:23;;;;;;;10.27;9.17;;;;;;;18.95;81.32;100961.56;5054958;28;20235;-82
2021/09/12 07:55:50;;;;;;;9.17;8.27;;;;;;;18.92;81.56;100965.41;5059839;28;20213;-82
2021/09/12 07:58:16;;;;;;;8.53;7.60;;;;;;;18.90;81.69;100970.06;5056907;28;20250;-81
2021/09/12 08:00:44;;;;;;;9.63;7.43;;;;;;;18.87;81.73;100959.56;5068380;28;20237;-81
2021/09/12 08:03:11;;;;;;;8.33;7.43;;;;;;;18.86;81.92;100975.91;5065416;28;20682;-81
2021/09/12 08:05:38;;;;;;;7.67;6.87;;;;;;;18.84;82.26;100973.34;5064303;28;20587;-81
2021/09/12 08:08:04;;;;;;;6.60;5.93;;;;;;;18.84;82.35;100969.78;5056777;28;20294;-81
2021/09/12 08:10:31;;;;;;;6.47;5.77;;;;;;;18.82;82.53;100969.06;5062447;28;20212;-81
2021/09/12 08:12:58;;;;;;;10.37;9.33;;;;;;;18.81;82.42;100972.78;5065118;28;20231;-80
2021/09/12 08:15:24;;;;;;;14.43;12.87;;;;;;;18.78;82.50;100975.78;5055762;28;20206;-81
2021/09/12 08:17:52;;;;;;;9.27;8.43;;;;;;;18.76;82.38;100983.16;5075213;28;20224;-81
2021/09/12 08:20:19;;;;;;;5.87;5.27;;;;;;;18.72;82.37;100978.03;5070663;28;20205;-81
2021/09/12 08:22:45;;;;;;;5.93;5.40;;;;;;;18.72;82.55;100986.13;5062119;28;20225;-81
2021/09/12 08:25:12;;;;;;;5.90;5.23;;;;;;;18.71;82.63;100984.41;5056633;28;20194;-81
2021/09/12 08:27:39;;;;;;;3.90;3.57;;;;;;;18.71;82.73;100984.41;5055316;28;20204;-81
2021/09/12 08:30:12;;;;;;;4.93;4.27;;;;;;;18.70;82.74;100988.13;5072444;28;20230;-81
2021/09/12 08:32:39;;;;;;;4.80;4.40;;;;;;;18.71;82.68;100983.56;5075411;28;20238;-81
2021/09/12 08:35:08;;;;;;;5.17;3.97;;;;;;;18.73;82.82;100990.53;5075337;28;20206;-80
2021/09/12 08:37:35;;;;;;;6.10;4.83;;;;;;;18.71;82.68;100989.81;5075463;28;20666;-81
2021/09/12 08:40:01;;;;;;;6.30;5.10;;;;;;;18.69;82.54;100986.41;5075095;28;20207;-81
2021/09/12 08:42:28;;;;;;;5.07;4.57;;;;;;;18.68;82.74;100990.09;5073206;28;20233;-81
2021/09/12 08:44:55;;;;;;;5.23;4.60;;;;;;;18.71;82.83;100984.41;5045517;28;20842;-84
2021/09/12 08:47:21;;;;;;;5.50;4.87;;;;;;;18.74;82.81;100986.00;5048243;28;20203;-84
2021/09/12 08:49:48;;;;;;;5.63;5.13;;;;;;;18.79;83.32;100990.97;5044425;28;20231;-83
2021/09/12 08:52:16;;;;;;;5.47;4.97;;;;;;;18.85;82.91;100995.78;5045898;28;20230;-83
2021/09/12 08:54:43;;;;;;;5.20;4.73;;;;;;;18.86;82.94;100990.25;5046109;28;20568;-83
2021/09/12 08:57:10;;;;;;;6.60;5.73;;;;;;;18.91;82.58;100990.69;5048515;28;20202;-83
2021/09/12 08:59:36;;;;;;;5.67;5.17;;;;;;;18.95;82.59;100991.25;5046434;28;20204;-83
2021/09/12 09:02:05;;;;;;;5.63;4.13;;;;;;;19.02;82.35;100992.38;5049652;28;20721;-83
2021/09/12 09:04:33;;;;;;;4.90;4.40;;;;;;;19.05;81.70;101002.88;5048566;28;20705;-83
2021/09/12 09:07:04;;;;;;;5.30;4.90;;;;;;;19.08;81.38;100997.19;5048633;28;20211;-83
2021/09/12 09:09:45;;;;;;;4.77;4.37;;;;;;;19.12;81.13;100993.22;5046918;28;20213;-83
2021/09/12 09:12:26;;;;;;;4.00;3.60;;;;;;;19.13;81.00;100996.78;5050385;28;20695;-83
2021/09/12 09:15:20;;;;;;;5.07;4.13;;;;;;;19.17;81.04;100995.50;5044327;28;20269;-83
2021/09/12 09:17:49;;;;;;;4.33;3.60;;;;;;;19.19;81.02;100999.72;5034823;28;20208;-82
2021/09/12 09:20:17;;;;;;;5.20;4.30;;;;;;;19.21;81.22;101003.16;5045368;28;20653;-83
2021/09/12 09:22:49;;;;;;;3.40;3.10;;;;;;;19.25;81.42;100993.75;5046434;28;20239;-83
2021/09/12 09:25:20;;;;;;;4.83;3.47;;;;;;;19.28;81.11;100988.09;5052658;28;20302;-83
2021/09/12 09:28:00;;;;;;;3.30;3.00;;;;;;;19.30;80.86;100993.34;5045201;28;20307;-84
2021/09/12 09:30:30;;;;;;;3.90;3.50;;;;;;;19.34;80.82;100992.06;5047266;28;20259;-83
2021/09/12 09:33:13;;;;;;;4.00;3.60;;;;;;;19.38;80.66;100983.50;5045631;28;20228;-83
2021/09/12 09:35:50;;;;;;;5.47;4.37;;;;;;;19.44;80.95;100987.47;5047080;28;20297;-83
2021/09/12 09:38:16;;;;;;;4.03;3.70;;;;;;;19.45;80.42;100986.47;5047836;28;20210;-84
2021/09/12 09:41:09;;;;;;;4.10;3.70;;;;;;;19.44;80.02;100987.47;5053251;28;20216;-83
2021/09/12 09:43:44;;;;;;;4.20;3.70;;;;;;;19.42;79.57;100979.50;5041460;28;20235;-83
2021/09/12 09:46:30;;;;;;;4.77;4.37;;;;;;;19.42;79.30;100990.31;5049158;28;20287;-84
2021/09/12 09:48:58;;;;;;;5.10;4.60;;;;;;;19.45;79.06;100982.94;5052289;28;20586;-82
2021/09/12 09:51:25;;;;;;;5.73;4.97;;;;;;;19.52;79.34;100979.53;5044731;28;20616;-82
2021/09/12 09:53:52;;;;;;;6.73;6.00;;;;;;;19.57;78.37;100985.34;5049015;28;20206;-83
2021/09/12 09:56:21;;;;;;;7.50;5.47;;;;;;;19.62;78.09;100982.19;5045719;28;20205;-82
2021/09/12 09:58:50;;;;;;;6.17;5.57;;;;;;;19.67;77.78;100988.88;5056153;28;20250;-83
2021/09/12 10:01:17;;;;;;;7.33;5.97;;;;;;;19.73;77.40;100993.66;5058897;28;20750;-81
2021/09/12 10:03:46;;;;;;;9.03;7.57;;;;;;;19.81;76.97;100992.94;5057190;28;20214;-81
2021/09/12 10:06:13;;;;;;;8.43;7.53;;;;;;;19.85;76.40;100993.50;5057358;28;20223;-79
2021/09/12 10:08:40;;;;;;;9.03;7.83;;;;;;;19.86;75.55;100989.78;5057557;28;20208;-79
2021/09/12 10:11:07;;;;;;;9.20;8.00;;;;;;;19.87;75.07;100995.06;5058932;28;20207;-81
2021/09/12 10:13:37;;;;;;;9.33;8.37;;;;;;;19.89;74.78;100993.03;5058262;28;20723;-82
2021/09/12 10:16:06;;;;;;;12.03;9.20;;;;;;;19.90;74.30;100988.47;5069874;28;20205;-81
2021/09/12 10:18:36;;;;;;;11.17;9.03;;;;;;;19.93;74.33;100999.00;5077786;28;20202;-80
2021/09/12 10:21:23;;;;;;;9.37;8.20;;;;;;;19.98;74.21;100994.84;5077281;28;20183;-81
2021/09/12 10:24:01;;;;;;;9.40;8.43;;;;;;;20.04;73.87;100996.97;5077118;28;20669;-81
2021/09/12 10:26:30;;;;;;;10.27;7.83;;;;;;;20.07;72.95;100991.22;5076367;28;20249;-81
2021/09/12 10:28:58;;;;;;;8.80;8.00;;;;;;;20.14;72.39;100990.66;5076501;28;20208;-81
2021/09/12 10:31:38;;;;;;;10.73;8.17;;;;;;;20.19;72.20;100988.34;5075756;28;20202;-80
2021/09/12 10:34:09;;;;;;;8.97;8.00;;;;;;;20.26;71.57;100986.72;5075699;28;20584;-81
2021/09/12 10:36:37;;;;;;;8.20;7.40;;;;;;;20.32;71.15;100988.84;5076129;28;20234;-81
2021/09/12 10:39:28;;;;;;;11.00;8.00;;;;;;;20.41;70.79;100985.25;5075603;28;20207;-81
2021/09/12 10:42:16;;;;;;;9.43;8.47;;;;;;;20.49;70.26;100979.06;5076131;28;20222;-80
2021/09/12 10:44:45;;;;;;;11.13;8.33;;;;;;;20.58;69.75;100979.03;5076892;28;20746;-80
2021/09/12 10:47:14;;;;;;;8.63;7.73;;;;;;;20.68;69.07;100985.19;5076586;28;20255;-81
2021/09/12 10:49:41;;;;;;;9.53;7.67;;;;;;;20.76;68.37;100982.59;5076574;28;20221;-80
2021/09/12 10:52:10;;;;;;;9.67;7.50;;;;;;;20.83;67.81;100971.13;5076660;28;20235;-81
2021/09/12 10:55:07;;;;;;;10.00;7.20;;;;;;;20.92;67.75;100976.47;5077037;28;20686;-82
2021/09/12 10:57:36;;;;;;;11.50;7.40;;;;;;;21.00;67.36;100975.66;5077323;28;20185;-80
2021/09/12 11:00:06;;;;;;;9.82;6.93;;;;;;;21.06;66.40;100981.31;5076810;28;20209;-78
2021/09/12 11:02:33;;;;;;;8.88;7.75;;;;;;;21.11;66.33;100980.84;5076172;28;20303;-80
2021/09/12 11:05:00;;;;;;;10.75;7.00;;;;;;;21.16;66.11;100970.38;5076630;28;20204;-80
2021/09/12 11:07:51;;;;;;;6.60;5.97;;;;;;;21.24;66.04;100975.03;5076237;28;20304;-80
2021/09/12 11:10:34;;;;;;;7.67;6.20;;;;;;;21.37;66.03;100975.47;5075816;28;20663;-80
2021/09/12 11:13:03;;;;;;;7.72;6.18;;;;;;;21.45;65.52;100979.09;5076059;28;20238;-80
2021/09/12 11:15:31;;;;;;;8.20;6.05;;;;;;;21.50;64.08;100978.59;5075991;28;20208;-80
2021/09/12 11:18:12;;;;;;;8.02;5.43;;;;;;;21.51;63.87;100982.16;5076946;28;20559;-81
2021/09/12 11:20:41;;;;;;;7.13;5.50;;;;;;;21.51;63.41;100971.31;5076401;28;20302;-81